createdAt,value
2023-10-10T00:01:08.996Z,16.60
2023-10-10T00:03:41.271Z,16.58
2023-10-10T00:06:09.881Z,16.60
2023-10-10T00:08:41.750Z,16.60
2023-10-10T00:11:15.773Z,16.50
2023-10-10T00:13:44.010Z,16.50
2023-10-10T00:16:27.535Z,16.50
2023-10-10T00:18:59.773Z,16.50
2023-10-10T00:21:29.802Z,16.50
2023-10-10T00:24:00.625Z,16.50
2023-10-10T00:26:27.602Z,16.50
2023-10-10T00:28:58.739Z,16.50
2023-10-10T00:31:28.331Z,16.48
2023-10-10T00:33:56.368Z,16.48
2023-10-10T00:36:29.313Z,16.46
2023-10-10T00:39:07.986Z,16.44
2023-10-10T00:42:04.268Z,16.44
2023-10-10T00:44:31.407Z,16.50
2023-10-10T00:46:59.642Z,16.50
2023-10-10T00:49:27.803Z,16.50
2023-10-10T00:52:02.403Z,16.50
2023-10-10T00:54:32.999Z,16.50
2023-10-10T00:57:00.891Z,16.50
2023-10-10T00:59:43.990Z,16.50
2023-10-10T01:02:12.573Z,16.50
2023-10-10T01:04:40.827Z,16.50
2023-10-10T01:07:09.039Z,16.50
2023-10-10T01:09:53.244Z,16.50
2023-10-10T01:12:20.385Z,16.50
2023-10-10T01:14:47.827Z,16.50
2023-10-10T01:17:14.429Z,16.50
2023-10-10T01:19:45.386Z,16.50
2023-10-10T01:22:23.937Z,16.48
2023-10-10T01:24:56.109Z,16.48
2023-10-10T01:27:23.589Z,16.50
2023-10-10T01:30:11.305Z,16.50
2023-10-10T01:32:39.445Z,16.50
2023-10-10T01:35:17.506Z,16.50
2023-10-10T01:37:55.817Z,16.50
2023-10-10T01:40:24.781Z,16.50
2023-10-10T01:43:00.502Z,16.50
2023-10-10T01:45:31.099Z,16.50
2023-10-10T01:47:58.181Z,16.46
2023-10-10T01:50:28.223Z,16.46
2023-10-10T01:52:57.418Z,16.40
2023-10-10T01:55:26.009Z,16.40
2023-10-10T01:57:58.932Z,16.40
2023-10-10T02:00:25.901Z,16.40
2023-10-10T02:02:57.227Z,16.40
2023-10-10T02:05:37.569Z,16.40
2023-10-10T02:08:10.873Z,16.40
2023-10-10T02:10:44.468Z,16.40
2023-10-10T02:13:12.635Z,16.40
2023-10-10T02:15:41.099Z,16.40
2023-10-10T02:18:13.652Z,16.32
2023-10-10T02:20:44.023Z,16.30
2023-10-10T02:23:24.054Z,16.30
2023-10-10T02:25:54.765Z,16.30
2023-10-10T02:28:22.262Z,16.32
2023-10-10T02:30:53.691Z,16.32
2023-10-10T02:33:20.736Z,16.38
2023-10-10T02:35:55.392Z,16.40
2023-10-10T02:38:34.023Z,16.36
2023-10-10T02:41:17.839Z,16.32
2023-10-10T02:43:47.537Z,16.30
2023-10-10T02:46:19.348Z,16.30
2023-10-10T02:48:46.238Z,16.30
2023-10-10T02:51:17.464Z,16.30
2023-10-10T02:53:47.947Z,16.30
2023-10-10T02:56:19.194Z,16.30
2023-10-10T02:58:55.335Z,16.30
2023-10-10T03:01:48.208Z,16.30
2023-10-10T03:04:18.402Z,16.30
2023-10-10T03:06:45.735Z,16.30
2023-10-10T03:09:35.157Z,16.30
2023-10-10T03:12:18.556Z,16.30
2023-10-10T03:14:45.849Z,16.30
2023-10-10T03:17:32.655Z,16.26
2023-10-10T03:20:14.810Z,16.20
2023-10-10T03:23:11.534Z,16.20
2023-10-10T03:25:52.615Z,16.20
2023-10-10T03:28:31.041Z,16.20
2023-10-10T03:31:12.249Z,16.20
2023-10-10T03:33:38.941Z,16.10
2023-10-10T03:36:15.884Z,16.10
2023-10-10T03:38:53.327Z,16.10
2023-10-10T03:41:26.936Z,16.10
2023-10-10T03:44:13.632Z,16.00
2023-10-10T03:46:50.315Z,16.00
2023-10-10T03:49:36.111Z,16.00
2023-10-10T03:52:22.004Z,16.00
2023-10-10T03:55:07.311Z,15.92
2023-10-10T03:57:52.862Z,15.90
2023-10-10T04:00:38.178Z,15.90
2023-10-10T04:03:23.927Z,15.80
2023-10-10T04:06:10.629Z,15.80
2023-10-10T04:08:56.029Z,15.80
2023-10-10T04:11:41.687Z,15.80
2023-10-10T04:14:27.102Z,15.76
2023-10-10T04:17:12.567Z,15.72
2023-10-10T04:19:58.202Z,15.70
2023-10-10T04:22:43.579Z,15.70
2023-10-10T04:25:29.122Z,15.70
2023-10-10T04:28:14.477Z,15.70
2023-10-10T04:30:59.706Z,15.70
2023-10-10T04:33:44.994Z,15.76
2023-10-10T04:36:30.330Z,15.76
2023-10-10T04:39:15.740Z,15.74
2023-10-10T04:42:00.744Z,15.76
2023-10-10T04:44:47.634Z,15.70
2023-10-10T04:47:33.225Z,15.70
2023-10-10T04:50:35.582Z,15.70
2023-10-10T04:53:21.032Z,15.70
2023-10-10T04:56:06.167Z,15.70
2023-10-10T04:58:51.796Z,15.60
2023-10-10T05:01:37.415Z,15.60
2023-10-10T05:04:23.006Z,15.52
2023-10-10T05:07:08.326Z,15.50
2023-10-10T05:09:54.603Z,15.50
2023-10-10T05:12:40.065Z,15.50
2023-10-10T05:15:25.885Z,15.50
2023-10-10T05:18:11.205Z,15.50
2023-10-10T05:20:56.879Z,15.50
2023-10-10T05:23:35.945Z,15.50
2023-10-10T05:26:06.657Z,15.50
2023-10-10T05:28:34.100Z,15.50
2023-10-10T05:31:04.215Z,15.50
2023-10-10T05:33:31.927Z,15.50
2023-10-10T05:36:00.396Z,15.50
2023-10-10T05:38:27.562Z,15.60
2023-10-10T05:40:55.412Z,15.60
2023-10-10T05:43:27.802Z,15.68
2023-10-10T05:45:57.606Z,15.70
2023-10-10T05:48:24.932Z,15.80
2023-10-10T05:50:52.108Z,15.80
2023-10-10T05:53:19.523Z,15.88
2023-10-10T05:55:52.614Z,15.90
2023-10-10T05:58:19.543Z,15.94
2023-10-10T06:00:50.621Z,16.00
2023-10-10T06:03:18.607Z,16.06
2023-10-10T06:05:45.660Z,16.10
2023-10-10T06:08:14.282Z,16.10
2023-10-10T06:10:41.201Z,16.20
2023-10-10T06:13:08.503Z,16.20
2023-10-10T06:15:36.238Z,16.28
2023-10-10T06:18:15.070Z,16.30
2023-10-10T06:20:58.214Z,16.40
2023-10-10T06:23:34.007Z,16.50
2023-10-10T06:26:01.409Z,16.56
2023-10-10T06:28:29.989Z,16.60
2023-10-10T06:30:56.927Z,16.70
2023-10-10T06:33:31.815Z,16.80
2023-10-10T06:36:24.846Z,16.90
2023-10-10T06:39:05.194Z,17.00
2023-10-10T06:41:41.007Z,17.10
2023-10-10T06:44:19.149Z,17.20
2023-10-10T06:46:49.716Z,17.30
2023-10-10T06:49:16.819Z,17.42
2023-10-10T06:51:44.021Z,17.60
2023-10-10T06:54:29.457Z,17.70
2023-10-10T06:57:00.121Z,17.90
2023-10-10T06:59:30.806Z,18.00
2023-10-10T07:02:14.729Z,18.10
2023-10-10T07:04:42.003Z,18.20
2023-10-10T07:07:10.193Z,18.30
2023-10-10T07:09:43.560Z,18.30
2023-10-10T07:12:15.150Z,18.40
2023-10-10T07:14:47.209Z,18.42
2023-10-10T07:17:15.827Z,18.50
2023-10-10T07:20:02.831Z,18.50
2023-10-10T07:22:35.166Z,18.50
2023-10-10T07:25:09.502Z,18.50
2023-10-10T07:27:38.025Z,18.50
2023-10-10T07:30:16.943Z,18.50
2023-10-10T07:32:46.267Z,18.50
2023-10-10T07:35:15.947Z,18.50
2023-10-10T07:37:46.667Z,18.50
2023-10-10T07:40:14.683Z,18.50
2023-10-10T07:42:41.533Z,18.50
2023-10-10T07:45:14.465Z,18.50
2023-10-10T07:48:00.490Z,18.60
2023-10-10T07:50:29.341Z,18.70
2023-10-10T07:52:56.602Z,18.80
2023-10-10T07:55:34.175Z,18.90
2023-10-10T07:58:00.996Z,19.00
2023-10-10T08:00:36.923Z,19.10
2023-10-10T08:03:04.348Z,19.20
2023-10-10T08:05:31.229Z,19.20
2023-10-10T08:07:58.380Z,19.20
2023-10-10T08:10:31.383Z,19.20
2023-10-10T08:12:59.522Z,19.34
2023-10-10T08:15:26.618Z,19.54
2023-10-10T08:18:00.129Z,19.70
2023-10-10T08:20:36.104Z,19.90
2023-10-10T08:23:05.608Z,20.06
2023-10-10T08:25:33.935Z,20.20
2023-10-10T08:28:01.489Z,20.28
2023-10-10T08:30:28.340Z,20.30
2023-10-10T08:32:56.900Z,20.40
2023-10-10T08:35:24.518Z,20.50
2023-10-10T08:37:51.741Z,20.60
2023-10-10T08:40:22.021Z,20.70
2023-10-10T08:42:52.877Z,20.80
2023-10-10T08:45:26.698Z,20.90
2023-10-10T08:48:01.858Z,21.04
2023-10-10T08:50:29.462Z,21.16
2023-10-10T08:52:56.321Z,21.20
2023-10-10T08:55:29.421Z,21.30
2023-10-10T08:57:56.820Z,21.40
2023-10-10T09:00:28.401Z,21.50
2023-10-10T09:02:58.168Z,21.62
2023-10-10T09:05:30.822Z,21.80
2023-10-10T09:08:07.614Z,21.90
2023-10-10T09:10:43.297Z,21.96
2023-10-10T09:13:11.152Z,22.00
2023-10-10T09:15:38.376Z,22.10
2023-10-10T09:18:23.368Z,22.10
2023-10-10T09:20:51.057Z,21.90
2023-10-10T09:23:33.722Z,21.80
2023-10-10T09:26:30.807Z,21.70
2023-10-10T09:28:59.466Z,21.60
2023-10-10T09:31:32.724Z,21.60
2023-10-10T09:34:07.876Z,21.50
2023-10-10T09:36:54.103Z,21.40
2023-10-10T09:39:36.705Z,21.30
2023-10-10T09:42:44.421Z,21.30
2023-10-10T09:45:28.065Z,21.20
2023-10-10T09:47:57.035Z,21.10
2023-10-10T09:50:31.154Z,21.08
2023-10-10T09:53:00.215Z,21.00
2023-10-10T09:55:33.505Z,20.90
2023-10-10T09:58:01.402Z,20.80
2023-10-10T10:00:41.487Z,20.80
2023-10-10T10:03:28.469Z,20.80
2023-10-10T10:06:23.972Z,20.70
2023-10-10T10:09:38.232Z,20.70
2023-10-10T10:12:42.479Z,20.70
2023-10-10T10:15:19.833Z,20.70
2023-10-10T10:17:58.164Z,20.80
2023-10-10T10:21:09.847Z,20.80
2023-10-10T10:23:56.732Z,20.70
2023-10-10T10:26:33.926Z,20.70
2023-10-10T10:29:16.836Z,20.70
2023-10-10T10:31:58.869Z,20.70
2023-10-10T10:34:36.368Z,20.70
2023-10-10T10:37:08.594Z,20.80
2023-10-10T10:39:39.057Z,20.80
2023-10-10T10:42:16.946Z,20.80
2023-10-10T10:45:00.510Z,20.90
2023-10-10T10:47:36.503Z,21.00
2023-10-10T10:50:18.733Z,21.18
2023-10-10T10:53:05.754Z,21.30
2023-10-10T10:55:33.219Z,21.40
2023-10-10T10:58:19.624Z,21.60
2023-10-10T11:00:58.621Z,21.70
2023-10-10T11:03:36.178Z,21.80
2023-10-10T11:06:11.258Z,21.90
2023-10-10T11:11:31.519Z,22.20
2023-10-10T11:14:16.386Z,22.20
2023-10-10T11:16:47.282Z,22.20
2023-10-10T11:19:24.827Z,22.30
2023-10-10T11:21:54.786Z,22.38
2023-10-10T11:24:27.564Z,22.46
2023-10-10T11:27:12.466Z,22.56
2023-10-10T11:29:46.574Z,22.60
2023-10-10T11:32:26.895Z,22.50
2023-10-10T11:35:18.611Z,22.50
2023-10-10T11:38:06.198Z,22.56
2023-10-10T11:40:33.686Z,22.60
2023-10-10T11:43:05.754Z,22.60
2023-10-10T11:45:52.278Z,22.66
2023-10-10T11:48:19.345Z,22.70
2023-10-10T11:50:58.517Z,22.80
2023-10-10T11:53:26.522Z,22.90
2023-10-10T11:55:54.477Z,23.00
2023-10-10T11:58:21.766Z,23.00
2023-10-10T12:01:09.900Z,23.06
2023-10-10T12:03:37.129Z,23.10
2023-10-10T12:06:03.833Z,23.10
2023-10-10T12:08:30.467Z,23.20
2023-10-10T12:11:12.432Z,23.24
2023-10-10T12:13:40.253Z,23.30
2023-10-10T12:16:14.033Z,23.40
2023-10-10T12:18:51.656Z,23.50
2023-10-10T12:21:22.563Z,23.50
2023-10-10T12:24:00.719Z,23.50
2023-10-10T12:26:28.972Z,23.50
2023-10-10T12:28:55.772Z,23.50
2023-10-10T12:31:23.734Z,23.60
2023-10-10T12:33:51.069Z,23.54
2023-10-10T12:36:18.310Z,23.50
2023-10-10T12:38:45.792Z,23.50
2023-10-10T12:41:12.793Z,23.50
2023-10-10T12:43:40.060Z,23.50
2023-10-10T12:46:11.262Z,23.60
2023-10-10T12:48:41.451Z,23.60
2023-10-10T12:51:11.533Z,23.60
2023-10-10T12:53:44.073Z,23.50
2023-10-10T12:56:13.424Z,23.44
2023-10-10T12:58:53.074Z,23.40
2023-10-10T13:01:26.743Z,23.30
2023-10-10T13:03:53.974Z,23.28
2023-10-10T13:06:24.265Z,23.30
2023-10-10T13:08:54.079Z,23.30
2023-10-10T13:11:33.644Z,23.20
2023-10-10T13:14:10.455Z,23.30
2023-10-10T13:16:43.970Z,23.30
2023-10-10T13:19:12.832Z,23.40
2023-10-10T13:21:40.811Z,23.40
2023-10-10T13:24:15.495Z,23.40
2023-10-10T13:26:46.633Z,23.40
2023-10-10T13:29:18.174Z,23.40
2023-10-10T13:31:48.353Z,23.48
2023-10-10T13:34:18.103Z,23.50
2023-10-10T13:36:45.333Z,23.50
2023-10-10T13:39:16.817Z,23.50
2023-10-10T13:41:43.519Z,23.50
2023-10-10T13:44:12.278Z,23.40
2023-10-10T13:46:39.310Z,23.28
2023-10-10T13:49:10.271Z,23.14
2023-10-10T13:51:43.497Z,23.02
2023-10-10T13:54:10.233Z,22.90
2023-10-10T13:56:37.088Z,22.74
2023-10-10T13:59:03.982Z,22.60
2023-10-10T14:01:31.436Z,22.50
2023-10-10T14:04:06.157Z,22.50
2023-10-10T14:06:46.684Z,22.40
2023-10-10T14:09:36.275Z,22.40
2023-10-10T14:12:09.971Z,22.40
2023-10-10T14:14:37.439Z,22.40
2023-10-10T14:17:07.267Z,22.40
2023-10-10T14:19:35.713Z,22.40
2023-10-10T14:22:11.355Z,22.42
2023-10-10T14:24:38.320Z,22.50
2023-10-10T14:27:06.519Z,22.48
2023-10-10T14:29:42.880Z,22.40
2023-10-10T14:32:30.984Z,22.40
2023-10-10T14:35:04.215Z,22.30
2023-10-10T14:37:45.393Z,22.20
2023-10-10T14:40:19.759Z,22.14
2023-10-10T14:42:46.342Z,22.10
2023-10-10T14:45:14.046Z,22.00
2023-10-10T14:47:44.824Z,21.90
2023-10-10T14:50:14.110Z,21.90
2023-10-10T14:52:48.747Z,21.90
2023-10-10T14:55:26.087Z,21.90
2023-10-10T14:57:56.198Z,21.90
2023-10-10T15:00:25.185Z,21.88
2023-10-10T15:02:55.154Z,21.80
2023-10-10T15:05:25.143Z,21.80
2023-10-10T15:07:54.052Z,21.80
2023-10-10T15:10:27.436Z,21.80
2023-10-10T15:12:54.971Z,21.80
2023-10-10T15:15:24.045Z,21.80
2023-10-10T15:17:51.838Z,21.80
2023-10-10T15:20:18.625Z,21.70
2023-10-10T15:22:45.436Z,21.70
2023-10-10T15:25:12.238Z,21.62
2023-10-10T15:27:43.243Z,21.60
2023-10-10T15:30:10.730Z,21.50
2023-10-10T15:32:48.151Z,21.50
2023-10-10T15:35:20.036Z,21.40
2023-10-10T15:37:47.307Z,21.30
2023-10-10T15:40:21.840Z,21.20
2023-10-10T15:42:50.674Z,21.10
2023-10-10T15:45:23.683Z,21.00
2023-10-10T15:47:54.258Z,20.90
2023-10-10T15:50:23.012Z,20.80
2023-10-10T15:52:50.379Z,20.70
2023-10-10T15:55:24.826Z,20.60
2023-10-10T15:57:55.514Z,20.50
2023-10-10T16:00:34.204Z,20.40
2023-10-10T16:03:07.722Z,20.30
2023-10-10T16:05:42.737Z,20.20
2023-10-10T16:08:10.187Z,20.10
2023-10-10T16:10:39.495Z,20.00
2023-10-10T16:13:08.501Z,19.90
2023-10-10T16:15:35.364Z,19.80
2023-10-10T16:18:02.271Z,19.70
2023-10-10T16:20:29.062Z,19.60
2023-10-10T16:22:57.012Z,19.50
2023-10-10T16:25:25.435Z,19.40
2023-10-10T16:27:52.237Z,19.30
2023-10-10T16:30:19.062Z,19.20
2023-10-10T16:32:46.161Z,19.10
2023-10-10T16:35:13.110Z,19.00
2023-10-10T16:37:41.609Z,18.90
2023-10-10T16:40:12.264Z,18.80
2023-10-10T16:42:38.809Z,18.74
2023-10-10T16:45:05.960Z,18.68
2023-10-10T16:47:33.850Z,18.60
2023-10-10T16:50:00.823Z,18.50
2023-10-10T16:52:27.980Z,18.50
2023-10-10T16:54:55.345Z,18.40
2023-10-10T16:57:25.062Z,18.40
2023-10-10T16:59:53.851Z,18.30
2023-10-10T17:02:20.635Z,18.26
2023-10-10T17:04:47.496Z,18.30
2023-10-10T17:07:14.132Z,18.20
2023-10-10T17:09:41.368Z,18.20
2023-10-10T17:12:08.608Z,18.10
2023-10-10T17:14:38.709Z,17.98
2023-10-10T17:17:05.700Z,18.00
2023-10-10T17:19:36.822Z,17.90
2023-10-10T17:22:03.674Z,17.80
2023-10-10T17:24:32.655Z,17.80
2023-10-10T17:26:59.383Z,17.70
2023-10-10T17:29:27.767Z,17.70
2023-10-10T17:31:54.498Z,17.60
2023-10-10T17:34:23.216Z,17.60
2023-10-10T17:36:51.507Z,17.50
2023-10-10T17:39:18.486Z,17.50
2023-10-10T17:41:49.017Z,17.40
2023-10-10T17:44:19.169Z,17.32
2023-10-10T17:46:47.153Z,17.30
2023-10-10T17:49:15.080Z,17.20
2023-10-10T17:51:45.824Z,17.20
2023-10-10T17:54:12.892Z,17.10
2023-10-10T17:56:41.614Z,17.00
2023-10-10T17:59:08.189Z,17.00
2023-10-10T18:01:35.626Z,16.90
2023-10-10T18:04:04.508Z,16.90
2023-10-10T18:06:36.203Z,16.80
2023-10-10T18:09:09.159Z,16.70
2023-10-10T18:11:37.801Z,16.70
2023-10-10T18:14:06.505Z,16.60
2023-10-10T18:16:35.522Z,16.60
2023-10-10T18:19:02.746Z,16.50
2023-10-10T18:21:31.584Z,16.50
2023-10-10T18:23:58.306Z,16.40
2023-10-10T18:26:25.318Z,16.40
2023-10-10T18:28:53.399Z,16.40
2023-10-10T18:31:25.712Z,16.30
2023-10-10T18:33:53.350Z,16.30
2023-10-10T18:36:21.580Z,16.20
2023-10-10T18:38:49.512Z,16.20
2023-10-10T18:41:24.252Z,16.20
2023-10-10T18:43:51.844Z,16.18
2023-10-10T18:46:18.469Z,16.10
2023-10-10T18:48:46.638Z,16.10
2023-10-10T18:51:14.634Z,16.10
2023-10-10T18:53:41.759Z,16.10
2023-10-10T18:56:09.394Z,16.10
2023-10-10T18:58:39.867Z,16.10
2023-10-10T19:01:10.862Z,16.10
2023-10-10T19:03:37.597Z,16.00
2023-10-10T19:06:07.196Z,16.00
2023-10-10T19:08:34.480Z,16.00
2023-10-10T19:11:02.093Z,16.00
2023-10-10T19:13:31.970Z,16.00
2023-10-10T19:15:58.642Z,15.94
2023-10-10T19:18:25.284Z,15.90
2023-10-10T19:20:52.174Z,15.90
2023-10-10T19:23:19.979Z,15.90
2023-10-10T19:25:49.573Z,15.90
2023-10-10T19:28:17.488Z,15.90
2023-10-10T19:30:46.057Z,15.90
2023-10-10T19:33:16.455Z,15.80
2023-10-10T19:35:45.256Z,15.80
2023-10-10T19:38:12.586Z,15.70
2023-10-10T19:40:44.105Z,15.70
2023-10-10T19:43:12.478Z,15.60
2023-10-10T19:45:40.150Z,15.60
2023-10-10T19:48:07.927Z,15.58
2023-10-10T19:50:37.865Z,15.56
2023-10-10T19:53:05.238Z,15.50
2023-10-10T19:55:38.776Z,15.50
2023-10-10T19:58:14.211Z,15.42
2023-10-10T20:00:44.275Z,15.40
2023-10-10T20:03:14.804Z,15.30
2023-10-10T20:05:42.901Z,15.30
2023-10-10T20:08:14.486Z,15.30
2023-10-10T20:10:41.885Z,15.30
2023-10-10T20:13:08.969Z,15.30
2023-10-10T20:15:43.253Z,15.30
2023-10-10T20:18:11.119Z,15.30
2023-10-10T20:20:42.493Z,15.30
2023-10-10T20:23:10.333Z,15.30
2023-10-10T20:25:42.926Z,15.30
2023-10-10T20:28:10.945Z,15.30
2023-10-10T20:30:44.915Z,15.30
2023-10-10T20:33:16.542Z,15.30
2023-10-10T20:35:47.115Z,15.30
2023-10-10T20:38:14.202Z,15.34
2023-10-10T20:40:44.589Z,15.40
2023-10-10T20:43:12.278Z,15.50
2023-10-10T20:45:39.360Z,15.50
2023-10-10T20:48:14.037Z,15.50
2023-10-10T20:50:45.381Z,15.50
2023-10-10T20:53:13.200Z,15.50
2023-10-10T20:55:42.525Z,15.50
2023-10-10T20:58:11.952Z,15.50
2023-10-10T21:00:39.667Z,15.50
2023-10-10T21:03:10.258Z,15.50
2023-10-10T21:05:45.418Z,15.50
2023-10-10T21:08:12.199Z,15.50
2023-10-10T21:10:41.926Z,15.50
2023-10-10T21:13:08.881Z,15.50
2023-10-10T21:15:35.622Z,15.50
2023-10-10T21:18:02.618Z,15.42
2023-10-10T21:20:31.930Z,15.40
2023-10-10T21:23:00.969Z,15.40
2023-10-10T21:25:28.169Z,15.40
2023-10-10T21:27:56.431Z,15.40
2023-10-10T21:30:24.869Z,15.40
2023-10-10T21:32:51.811Z,15.40
2023-10-10T21:35:22.125Z,15.40
2023-10-10T21:37:53.275Z,15.40
2023-10-10T21:40:22.769Z,15.40
2023-10-10T21:42:57.016Z,15.40
2023-10-10T21:45:25.073Z,15.50
2023-10-10T21:47:55.738Z,15.50
2023-10-10T21:50:24.367Z,15.50
2023-10-10T21:52:52.233Z,15.50
2023-10-10T21:55:22.660Z,15.50
2023-10-10T21:57:51.413Z,15.50
2023-10-10T22:00:42.456Z,15.50
2023-10-10T22:03:09.574Z,15.50
2023-10-10T22:05:38.497Z,15.50
2023-10-10T22:08:07.541Z,15.50
2023-10-10T22:10:36.446Z,15.50
2023-10-10T22:13:05.320Z,15.44
2023-10-10T22:15:36.127Z,15.40
2023-10-10T22:18:05.855Z,15.30
2023-10-10T22:20:36.272Z,15.30
2023-10-10T22:23:05.516Z,15.20
2023-10-10T22:25:35.861Z,15.12
2023-10-10T22:28:03.061Z,15.10
2023-10-10T22:30:33.938Z,15.00
2023-10-10T22:33:01.379Z,15.00
2023-10-10T22:35:29.820Z,14.90
2023-10-10T22:37:57.628Z,14.90
2023-10-10T22:40:28.222Z,14.80
2023-10-10T22:43:02.380Z,14.80
2023-10-10T22:45:38.815Z,14.70
2023-10-10T22:48:09.288Z,14.64
2023-10-10T22:50:37.033Z,14.60
2023-10-10T22:53:05.591Z,14.60
2023-10-10T22:55:36.375Z,14.60
2023-10-10T22:58:08.067Z,14.50
2023-10-10T23:00:39.375Z,14.50
2023-10-10T23:03:12.088Z,14.44
2023-10-10T23:05:40.483Z,14.40
2023-10-10T23:08:08.207Z,14.30
2023-10-10T23:10:35.704Z,14.30
2023-10-10T23:13:05.381Z,14.20
2023-10-10T23:15:31.944Z,14.20
2023-10-10T23:18:00.821Z,14.18
2023-10-10T23:20:29.808Z,14.10
2023-10-10T23:22:59.838Z,14.10
2023-10-10T23:25:27.386Z,14.06
2023-10-10T23:27:57.953Z,14.00
2023-10-10T23:30:28.881Z,14.00
2023-10-10T23:32:57.499Z,13.90
2023-10-10T23:35:27.986Z,13.90
2023-10-10T23:38:06.712Z,13.80
2023-10-10T23:40:41.292Z,13.74
2023-10-10T23:43:09.554Z,13.70
2023-10-10T23:45:43.151Z,13.60
2023-10-10T23:48:20.097Z,13.60
2023-10-10T23:50:47.381Z,13.54
2023-10-10T23:53:14.686Z,13.50
2023-10-10T23:55:42.189Z,13.50
2023-10-10T23:58:13.063Z,13.50
